KAGC METAR
PITTSBURGH/ALLEG, PA
Metar
KAGC 251753Z 35006KT 4SM -RA BR BKN008 BKN027 OVC033 06/05 A3005 RMK AO2 SLP186 P0007 60014 T00610050 10072 20061 53003

17:53 UTC

Wind: 350° 6kt

Visibility: 4 SM

Sky: BKN 800 ft

Temp: 6 deg C / 42.8 deg F

Dewpoint: 5 deg C / 41 deg F

Pressure: 30.05 inHg

TAF
KAGC 251736Z 2518/2618 02006KT 6SM -RA BR OVC025 TEMPO 2518/2520 5SM -RA BR OVC008 FM252200 02005KT P6SM SCT250